Terminal Aerodrome Forecast
Issued by NWS

Home | Current Version | Previous Version | Text Only | Print | Product List | Glossary On
Versions: 1 2 3 4 5 6 7 8 9 10 11 12 13 14 15 16 17 18
000
FTUS45 KLKN 211743
TAFEKO
TAF
KEKO 211743Z 2118/2218 24008KT P6SM VCSH SCT020 BKN050 OVC070
     FM220000 22008KT P6SM SCT020 BKN060
     FM220400 22005KT P6SM VCSH BKN040 OVC070
      TEMPO 2214/2218 5SM -SN BR BKN025=

USA.gov is the U.S. government's official web portal to all federal, state and local government web resources and services.